createdAt,value
2024-05-09T00:00:52.882Z,27.59
2024-05-09T00:03:23.995Z,27.60
2024-05-09T00:05:54.569Z,27.60
2024-05-09T00:08:26.100Z,27.62
2024-05-09T00:10:56.856Z,27.62
2024-05-09T00:13:27.969Z,27.58
2024-05-09T00:15:58.846Z,27.55
2024-05-09T00:18:30.140Z,27.58
2024-05-09T00:21:01.468Z,27.59
2024-05-09T00:23:32.799Z,27.60
2024-05-09T00:26:03.543Z,27.58
2024-05-09T00:28:34.402Z,27.56
2024-05-09T00:31:05.717Z,27.57
2024-05-09T00:33:36.848Z,27.58
2024-05-09T00:36:08.894Z,27.61
2024-05-09T00:38:39.773Z,27.62
2024-05-09T00:41:10.647Z,27.61
2024-05-09T00:43:42.492Z,27.60
2024-05-09T00:46:13.326Z,27.57
2024-05-09T00:48:44.617Z,27.56
2024-05-09T00:51:15.505Z,27.56
2024-05-09T00:53:47.736Z,27.58
2024-05-09T00:56:20.700Z,27.62
2024-05-09T00:58:53.574Z,27.59
2024-05-09T01:01:25.928Z,27.49
2024-05-09T01:03:57.397Z,27.59
2024-05-09T01:06:28.210Z,27.58
2024-05-09T01:08:59.379Z,27.61
2024-05-09T01:11:39.493Z,27.66
2024-05-09T01:14:10.683Z,27.66
2024-05-09T01:16:41.778Z,27.69
2024-05-09T01:19:25.360Z,27.72
2024-05-09T01:21:56.419Z,27.75
2024-05-09T01:24:27.359Z,27.72
2024-05-09T01:26:58.288Z,27.77
2024-05-09T01:29:29.241Z,27.83
2024-05-09T01:32:01.443Z,27.86
2024-05-09T01:34:32.776Z,27.90
2024-05-09T01:37:03.749Z,28.03
2024-05-09T01:39:34.577Z,27.99
2024-05-09T01:42:05.598Z,28.01
2024-05-09T01:44:36.732Z,28.11
2024-05-09T01:47:07.585Z,28.30
2024-05-09T01:49:39.605Z,28.73
2024-05-09T01:52:10.435Z,28.73
2024-05-09T01:54:41.965Z,28.96
2024-05-09T01:57:12.906Z,28.97
2024-05-09T01:59:43.753Z,29.08
2024-05-09T02:02:15.586Z,29.39
2024-05-09T02:04:49.750Z,29.50
2024-05-09T02:07:20.724Z,29.68
2024-05-09T02:09:55.197Z,29.87
2024-05-09T02:12:25.954Z,29.97
2024-05-09T02:14:57.276Z,30.21
2024-05-09T02:17:31.075Z,30.55
2024-05-09T02:20:02.738Z,30.41
2024-05-09T02:22:33.425Z,30.63
2024-05-09T02:25:04.589Z,30.82
2024-05-09T02:27:35.197Z,30.39
2024-05-09T02:30:15.130Z,30.91
2024-05-09T02:32:53.435Z,30.85
2024-05-09T02:35:24.813Z,31.40
2024-05-09T02:37:55.599Z,31.47
2024-05-09T02:40:35.497Z,31.64
2024-05-09T02:43:11.177Z,31.25
2024-05-09T02:45:43.678Z,31.38
2024-05-09T02:48:14.854Z,31.51
2024-05-09T02:50:46.345Z,31.48
2024-05-09T02:53:17.497Z,31.20
2024-05-09T02:55:49.040Z,31.03
2024-05-09T02:58:19.676Z,31.07
2024-05-09T03:00:51.498Z,30.95
2024-05-09T03:03:22.534Z,30.72
2024-05-09T03:05:53.949Z,30.61
2024-05-09T03:08:25.056Z,30.61
2024-05-09T03:10:56.248Z,30.62
2024-05-09T03:13:26.774Z,30.44
2024-05-09T03:15:57.883Z,30.54
2024-05-09T03:18:28.855Z,30.63
2024-05-09T03:20:59.788Z,30.67
2024-05-09T03:23:30.669Z,30.56
2024-05-09T03:26:01.729Z,30.73
2024-05-09T03:28:32.570Z,30.64
2024-05-09T03:31:03.341Z,30.79
2024-05-09T03:33:34.564Z,30.58
2024-05-09T03:36:09.762Z,30.77
2024-05-09T03:38:42.561Z,30.72
2024-05-09T03:41:14.735Z,31.02
2024-05-09T03:43:46.940Z,31.26
2024-05-09T03:46:17.735Z,31.25
2024-05-09T03:48:49.296Z,31.37
2024-05-09T03:51:20.063Z,31.55
2024-05-09T03:53:51.144Z,31.55
2024-05-09T03:56:22.088Z,31.49
2024-05-09T03:58:53.462Z,31.90
2024-05-09T04:01:27.151Z,32.20
2024-05-09T04:03:58.849Z,32.13
2024-05-09T04:06:29.705Z,31.96
2024-05-09T04:09:00.752Z,32.14
2024-05-09T04:11:31.819Z,32.32
2024-05-09T04:14:03.348Z,32.14
2024-05-09T04:16:34.166Z,32.25
2024-05-09T04:19:05.525Z,32.13
2024-05-09T04:21:36.377Z,32.53
2024-05-09T04:24:07.696Z,32.68
2024-05-09T04:26:38.545Z,32.76
2024-05-09T04:29:09.770Z,32.94
2024-05-09T04:31:40.775Z,33.08
2024-05-09T04:34:12.341Z,33.11
2024-05-09T04:36:44.480Z,33.23
2024-05-09T04:39:16.016Z,33.30
2024-05-09T04:41:46.800Z,33.32
2024-05-09T04:44:17.886Z,33.62
2024-05-09T04:46:51.008Z,33.83
2024-05-09T04:49:24.923Z,33.48
2024-05-09T04:51:55.969Z,33.97
2024-05-09T04:54:34.206Z,33.95
2024-05-09T04:57:07.430Z,34.26
2024-05-09T04:59:38.545Z,34.38
2024-05-09T05:02:10.287Z,34.41
2024-05-09T05:04:41.339Z,34.57
2024-05-09T05:07:12.916Z,35.03
2024-05-09T05:09:43.749Z,35.20
2024-05-09T05:12:33.120Z,35.49
2024-05-09T05:15:04.011Z,35.87
2024-05-09T05:17:35.982Z,35.21
2024-05-09T05:20:08.551Z,35.25
2024-05-09T05:22:39.767Z,35.41
2024-05-09T05:25:10.602Z,35.47
2024-05-09T05:27:42.337Z,35.80
2024-05-09T05:30:21.040Z,35.72
2024-05-09T05:32:56.582Z,35.58
2024-05-09T05:35:28.580Z,35.89
2024-05-09T05:38:00.068Z,35.73
2024-05-09T05:40:36.777Z,35.64
2024-05-09T05:43:12.947Z,35.77
2024-05-09T05:45:44.177Z,35.59
2024-05-09T05:48:19.466Z,35.87
2024-05-09T05:50:50.675Z,36.17
2024-05-09T05:53:21.740Z,35.81
2024-05-09T05:55:53.759Z,35.95
2024-05-09T05:58:25.027Z,36.11
2024-05-09T06:00:56.154Z,36.32
2024-05-09T06:03:28.025Z,35.96
2024-05-09T06:05:59.089Z,36.35
2024-05-09T06:08:30.700Z,36.67
2024-05-09T06:11:02.002Z,36.43
2024-05-09T06:13:33.117Z,36.43
2024-05-09T06:16:06.544Z,36.73
2024-05-09T06:18:37.840Z,36.43
2024-05-09T06:21:09.412Z,36.71
2024-05-09T06:23:51.165Z,36.67
2024-05-09T06:26:22.184Z,36.63
2024-05-09T06:28:53.695Z,36.55
2024-05-09T06:31:24.481Z,36.65
2024-05-09T06:33:56.247Z,36.59
2024-05-09T06:36:27.147Z,36.54
2024-05-09T06:38:58.518Z,36.53
2024-05-09T06:41:33.246Z,36.75
2024-05-09T06:44:06.223Z,36.48
2024-05-09T06:46:42.026Z,36.58
2024-05-09T06:49:15.599Z,36.62
2024-05-09T06:51:47.744Z,36.89
2024-05-09T06:54:20.752Z,36.63
2024-05-09T06:56:51.537Z,36.90
2024-05-09T06:59:22.798Z,37.01
2024-05-09T07:01:54.655Z,36.86
2024-05-09T07:04:26.678Z,37.03
2024-05-09T07:06:58.256Z,37.13
2024-05-09T07:09:29.894Z,36.94
2024-05-09T07:12:01.451Z,36.88
2024-05-09T07:14:33.949Z,36.92
2024-05-09T07:17:05.909Z,36.95
2024-05-09T07:19:37.174Z,36.58
2024-05-09T07:22:08.281Z,36.64
2024-05-09T07:24:40.433Z,37.05
2024-05-09T07:27:15.484Z,36.80
2024-05-09T07:29:46.539Z,36.80
2024-05-09T07:32:17.771Z,36.88
2024-05-09T07:34:48.846Z,36.94
2024-05-09T07:37:19.963Z,36.97
2024-05-09T07:39:50.732Z,36.85
2024-05-09T07:42:21.903Z,36.90
2024-05-09T07:44:52.994Z,36.85
2024-05-09T07:48:49.069Z,36.69
2024-05-09T07:53:34.824Z,36.80
2024-05-09T07:55:40.849Z,36.86
2024-05-09T07:58:12.648Z,36.88
2024-05-09T08:00:43.853Z,36.94
2024-05-09T08:03:15.450Z,36.85
2024-05-09T08:05:46.737Z,36.75
2024-05-09T08:08:17.824Z,36.88
2024-05-09T08:10:48.885Z,36.94
2024-05-09T08:13:20.526Z,36.75
2024-05-09T08:15:56.388Z,36.79
2024-05-09T08:18:27.945Z,36.80
2024-05-09T08:21:03.219Z,36.73
2024-05-09T08:23:34.487Z,36.73
2024-05-09T08:26:05.275Z,36.74
2024-05-09T08:28:38.638Z,36.63
2024-05-09T08:31:09.507Z,36.53
2024-05-09T08:33:49.994Z,36.62
2024-05-09T08:36:21.834Z,36.64
2024-05-09T08:38:53.088Z,36.52
2024-05-09T08:41:24.306Z,36.44
2024-05-09T08:44:06.421Z,36.51
2024-05-09T08:46:39.180Z,36.48
2024-05-09T08:49:10.550Z,36.23
2024-05-09T08:51:41.608Z,36.25
2024-05-09T08:54:13.014Z,36.29
2024-05-09T08:56:50.384Z,36.32
2024-05-09T08:59:30.750Z,36.29
2024-05-09T09:02:02.100Z,36.23
2024-05-09T09:04:38.097Z,36.19
2024-05-09T09:07:09.977Z,36.24
2024-05-09T09:09:48.087Z,36.19
2024-05-09T09:12:19.460Z,36.12
2024-05-09T09:14:50.771Z,36.17
2024-05-09T09:17:21.771Z,36.19
2024-05-09T09:19:53.519Z,36.26
2024-05-09T09:22:24.275Z,36.24
2024-05-09T09:24:55.445Z,36.22
2024-05-09T09:27:26.533Z,36.18
2024-05-09T09:30:00.122Z,36.11
2024-05-09T09:32:31.761Z,36.01
2024-05-09T09:35:03.261Z,36.05
2024-05-09T09:37:36.627Z,36.05
2024-05-09T09:40:13.326Z,36.09
2024-05-09T09:42:46.307Z,36.09
2024-05-09T09:45:18.924Z,36.14
2024-05-09T09:47:51.200Z,36.16
2024-05-09T09:50:27.970Z,36.22
2024-05-09T09:53:07.191Z,36.28
2024-05-09T09:55:39.869Z,36.24
2024-05-09T09:58:14.304Z,36.24
2024-05-09T10:00:49.206Z,36.23
2024-05-09T10:03:20.253Z,36.20
2024-05-09T10:05:52.541Z,36.22
2024-05-09T10:08:26.205Z,36.27
2024-05-09T10:10:59.282Z,36.38
2024-05-09T10:13:36.494Z,36.36
2024-05-09T10:16:12.295Z,36.33
2024-05-09T10:18:43.760Z,36.30
2024-05-09T10:21:20.491Z,36.35
2024-05-09T10:24:08.783Z,36.42
2024-05-09T10:26:41.406Z,36.43
2024-05-09T10:29:20.343Z,36.45
2024-05-09T10:31:51.380Z,36.52
2024-05-09T10:34:26.694Z,36.51
2024-05-09T10:36:58.893Z,36.52
2024-05-09T10:39:36.961Z,36.54
2024-05-09T10:42:12.850Z,36.55
2024-05-09T10:44:45.539Z,36.42
2024-05-09T10:47:17.839Z,36.50
2024-05-09T10:49:49.260Z,36.40
2024-05-09T10:52:26.799Z,36.41
2024-05-09T10:54:58.238Z,36.45
2024-05-09T10:57:40.041Z,36.38
2024-05-09T11:00:18.958Z,36.29
2024-05-09T11:02:55.828Z,36.24
2024-05-09T11:05:27.315Z,36.22
2024-05-09T11:07:58.659Z,36.12
2024-05-09T11:10:34.057Z,36.03
2024-05-09T11:13:05.861Z,35.93
2024-05-09T11:15:44.347Z,35.85
2024-05-09T11:18:30.631Z,35.78
2024-05-09T11:21:18.755Z,35.68
2024-05-09T11:23:56.046Z,35.63
2024-05-09T11:26:37.622Z,35.57
2024-05-09T11:29:09.134Z,35.50
2024-05-09T11:31:50.114Z,35.50
2024-05-09T11:34:21.781Z,35.45
2024-05-09T11:36:52.974Z,35.44
2024-05-09T11:39:24.535Z,35.46
2024-05-09T11:41:55.536Z,35.38
2024-05-09T11:44:27.155Z,35.34
2024-05-09T11:46:58.601Z,35.32
2024-05-09T11:49:30.298Z,35.28
2024-05-09T11:52:01.388Z,35.24
2024-05-09T11:54:33.538Z,35.27
2024-05-09T11:57:05.159Z,35.24
2024-05-09T11:59:37.259Z,35.22
2024-05-09T12:02:08.826Z,35.15
2024-05-09T12:04:41.040Z,35.08
2024-05-09T12:07:13.322Z,35.02
2024-05-09T12:09:45.125Z,34.96
2024-05-09T12:12:16.737Z,34.87
2024-05-09T12:14:47.942Z,34.79
2024-05-09T12:17:18.877Z,34.76
2024-05-09T12:19:50.440Z,34.69
2024-05-09T12:22:24.924Z,34.63
2024-05-09T12:24:56.278Z,34.56
2024-05-09T12:27:28.443Z,34.51
2024-05-09T12:30:00.807Z,34.47
2024-05-09T12:32:32.810Z,34.43
2024-05-09T12:35:03.800Z,34.40
2024-05-09T12:37:35.901Z,34.35
2024-05-09T12:40:15.816Z,34.36
2024-05-09T12:42:52.127Z,34.32
2024-05-09T12:45:23.693Z,34.25
2024-05-09T12:47:54.732Z,34.19
2024-05-09T12:50:32.471Z,34.17
2024-05-09T12:53:05.508Z,34.17
2024-05-09T12:55:48.373Z,34.16
2024-05-09T12:58:25.192Z,34.09
2024-05-09T13:00:56.685Z,33.97
2024-05-09T13:03:29.228Z,33.93
2024-05-09T13:06:00.789Z,33.86
2024-05-09T13:08:31.727Z,33.79
2024-05-09T13:11:03.845Z,33.70
2024-05-09T13:13:35.507Z,33.63
2024-05-09T13:16:07.089Z,33.58
2024-05-09T13:18:38.640Z,33.49
2024-05-09T13:21:09.847Z,33.41
2024-05-09T13:23:42.454Z,33.32
2024-05-09T13:26:13.154Z,33.26
2024-05-09T13:28:45.056Z,33.18
2024-05-09T13:31:16.718Z,33.12
2024-05-09T13:33:48.961Z,33.03
2024-05-09T13:36:20.817Z,32.96
2024-05-09T13:38:52.161Z,32.88
2024-05-09T13:41:27.937Z,32.89
2024-05-09T13:43:59.121Z,32.84
2024-05-09T13:46:30.905Z,32.77
2024-05-09T13:49:02.357Z,32.72
2024-05-09T13:51:33.809Z,32.65
2024-05-09T13:54:04.856Z,32.58
2024-05-09T13:56:39.669Z,32.52
2024-05-09T13:59:11.808Z,32.46
2024-05-09T14:01:43.568Z,32.34
2024-05-09T14:04:18.438Z,32.28
2024-05-09T14:06:53.761Z,32.22
2024-05-09T14:09:31.869Z,32.17
2024-05-09T14:12:09.729Z,32.13
2024-05-09T14:14:42.516Z,32.04
2024-05-09T14:17:15.176Z,32.04
2024-05-09T14:19:47.398Z,32.03
2024-05-09T14:22:18.859Z,31.99
2024-05-09T14:24:51.327Z,31.93
2024-05-09T14:27:22.843Z,31.89
2024-05-09T14:29:54.289Z,31.87
2024-05-09T14:32:25.908Z,31.85
2024-05-09T14:35:00.928Z,31.75
2024-05-09T14:37:32.055Z,31.72
2024-05-09T14:40:06.893Z,31.66
2024-05-09T14:42:40.050Z,31.63
2024-05-09T14:45:11.468Z,31.59
2024-05-09T14:47:46.301Z,31.54
2024-05-09T14:50:27.378Z,31.51
2024-05-09T14:53:05.352Z,31.51
2024-05-09T14:55:38.446Z,31.47
2024-05-09T14:58:16.766Z,31.46
2024-05-09T15:00:51.182Z,31.44
2024-05-09T15:03:30.628Z,31.41
2024-05-09T15:06:03.363Z,31.32
2024-05-09T15:08:34.711Z,31.28
2024-05-09T15:11:10.846Z,31.26
2024-05-09T15:13:43.314Z,31.23
2024-05-09T15:16:20.234Z,31.21
2024-05-09T15:18:52.794Z,31.23
2024-05-09T15:21:24.285Z,31.21
2024-05-09T15:23:55.610Z,31.23
2024-05-09T15:26:28.063Z,31.19
2024-05-09T15:28:59.889Z,31.20
2024-05-09T15:31:34.409Z,31.20
2024-05-09T15:34:05.939Z,31.25
2024-05-09T15:36:41.159Z,31.26
2024-05-09T15:39:19.432Z,31.42
2024-05-09T15:41:50.594Z,31.48
2024-05-09T15:44:22.202Z,31.61
2024-05-09T15:46:57.367Z,31.56
2024-05-09T15:49:28.618Z,31.54
2024-05-09T15:52:01.194Z,31.56
2024-05-09T15:54:32.386Z,31.56
2024-05-09T15:57:04.119Z,31.57
2024-05-09T15:59:35.805Z,31.57
2024-05-09T16:02:08.074Z,31.60
2024-05-09T16:04:39.985Z,31.49
2024-05-09T16:07:11.979Z,31.42
2024-05-09T16:09:43.305Z,31.38
2024-05-09T16:12:15.021Z,31.36
2024-05-09T16:14:48.632Z,31.31
2024-05-09T16:17:22.631Z,31.30
2024-05-09T16:19:53.740Z,31.32
2024-05-09T16:22:25.159Z,31.32
2024-05-09T16:24:56.249Z,31.27
2024-05-09T16:27:30.047Z,31.22
2024-05-09T16:30:07.276Z,31.23
2024-05-09T16:32:45.966Z,31.20
2024-05-09T16:35:17.669Z,31.12
2024-05-09T16:37:49.743Z,31.04
2024-05-09T16:40:30.378Z,31.02
2024-05-09T16:43:09.190Z,31.03
2024-05-09T16:45:43.048Z,31.00
2024-05-09T16:48:15.813Z,31.02
2024-05-09T16:50:46.929Z,31.00
2024-05-09T16:53:19.371Z,30.97
2024-05-09T16:55:50.730Z,30.89
2024-05-09T16:58:22.158Z,30.83
2024-05-09T17:00:53.406Z,30.80
2024-05-09T17:03:25.638Z,30.76
2024-05-09T17:05:56.919Z,30.71
2024-05-09T17:08:28.123Z,30.77
2024-05-09T17:11:02.850Z,30.76
2024-05-09T17:13:34.353Z,30.69
2024-05-09T17:16:05.910Z,30.68
2024-05-09T17:18:39.170Z,30.63
2024-05-09T17:21:10.470Z,30.57
2024-05-09T17:23:42.337Z,30.58
2024-05-09T17:26:13.793Z,30.57
2024-05-09T17:28:46.000Z,30.57
2024-05-09T17:31:17.050Z,30.56
2024-05-09T17:33:51.871Z,30.54
2024-05-09T17:36:24.885Z,30.55
2024-05-09T17:38:56.759Z,30.51
2024-05-09T17:41:28.220Z,30.48
2024-05-09T17:43:59.401Z,30.49
2024-05-09T17:46:30.786Z,30.44
2024-05-09T17:49:02.575Z,30.41
2024-05-09T17:51:39.999Z,30.41
2024-05-09T17:54:14.534Z,30.45
2024-05-09T17:56:46.071Z,30.43
2024-05-09T17:59:17.471Z,30.41
2024-05-09T18:01:48.751Z,30.45
2024-05-09T18:04:21.128Z,30.49
2024-05-09T18:06:52.216Z,30.42
2024-05-09T18:09:23.575Z,30.35
2024-05-09T18:11:54.598Z,30.28
2024-05-09T18:14:25.703Z,30.32
2024-05-09T18:16:56.624Z,30.31
2024-05-09T18:19:27.863Z,30.27
2024-05-09T18:21:59.008Z,30.37
2024-05-09T18:24:31.495Z,30.49
2024-05-09T18:27:02.216Z,30.50
2024-05-09T18:29:34.195Z,30.55
2024-05-09T18:32:05.040Z,30.59
2024-05-09T18:34:36.231Z,30.62
2024-05-09T18:37:07.441Z,30.71
2024-05-09T18:39:38.637Z,30.65
2024-05-09T18:42:10.296Z,30.63
2024-05-09T18:44:41.049Z,30.69
2024-05-09T18:47:12.944Z,30.67
2024-05-09T18:49:44.683Z,30.61
2024-05-09T18:52:16.116Z,30.65
2024-05-09T18:54:46.970Z,30.73
2024-05-09T18:57:17.537Z,30.72
2024-05-09T18:59:48.333Z,30.77
2024-05-09T19:02:19.479Z,30.67
2024-05-09T19:04:54.652Z,30.65
2024-05-09T19:07:25.745Z,30.61
2024-05-09T19:09:56.610Z,30.49
2024-05-09T19:12:27.443Z,30.38
2024-05-09T19:14:58.310Z,30.38
2024-05-09T19:17:31.363Z,30.36
2024-05-09T19:20:02.829Z,30.40
2024-05-09T19:22:34.134Z,30.38
2024-05-09T19:25:05.282Z,30.30
2024-05-09T19:27:36.057Z,30.27
2024-05-09T19:30:17.392Z,30.25
2024-05-09T19:32:55.192Z,30.23
2024-05-09T19:35:26.796Z,30.13
2024-05-09T19:37:57.532Z,30.13
2024-05-09T19:40:32.078Z,30.10
2024-05-09T19:43:05.956Z,30.07
2024-05-09T19:45:37.668Z,30.07
2024-05-09T19:48:09.133Z,30.08
2024-05-09T19:50:43.615Z,30.07
2024-05-09T19:53:15.963Z,30.03
2024-05-09T19:55:46.845Z,29.93
2024-05-09T19:58:17.940Z,29.89
2024-05-09T20:00:49.543Z,29.81
2024-05-09T20:03:20.855Z,29.85
2024-05-09T20:05:51.712Z,29.79
2024-05-09T20:08:22.473Z,29.72
2024-05-09T20:10:53.436Z,29.69
2024-05-09T20:13:24.557Z,29.68
2024-05-09T20:15:55.485Z,29.61
2024-05-09T20:18:26.477Z,29.60
2024-05-09T20:20:57.868Z,29.52
2024-05-09T20:23:28.756Z,29.52
2024-05-09T20:26:00.267Z,29.45
2024-05-09T20:28:31.744Z,29.41
2024-05-09T20:31:04.811Z,29.33
2024-05-09T20:33:35.442Z,29.28
2024-05-09T20:36:07.719Z,29.24
2024-05-09T20:38:38.288Z,29.20
2024-05-09T20:41:09.137Z,29.21
2024-05-09T20:43:39.915Z,29.15
2024-05-09T20:46:11.062Z,29.16
2024-05-09T20:48:42.113Z,29.16
2024-05-09T20:51:13.152Z,29.15
2024-05-09T20:53:44.156Z,29.15
2024-05-09T20:56:14.723Z,29.16
2024-05-09T20:58:49.286Z,29.18
2024-05-09T21:01:21.675Z,29.25
2024-05-09T21:03:52.835Z,29.29
2024-05-09T21:06:23.877Z,29.38
2024-05-09T21:08:55.664Z,29.39
2024-05-09T21:11:26.664Z,29.36
2024-05-09T21:13:57.580Z,29.35
2024-05-09T21:16:28.343Z,29.32
2024-05-09T21:18:59.572Z,29.33
2024-05-09T21:21:30.141Z,29.30
2024-05-09T21:24:01.746Z,29.35
2024-05-09T21:26:32.310Z,29.32
2024-05-09T21:29:03.111Z,29.39
2024-05-09T21:31:34.079Z,29.37
2024-05-09T21:34:05.076Z,29.36
2024-05-09T21:36:35.774Z,29.34
2024-05-09T21:39:06.566Z,29.36
2024-05-09T21:41:37.290Z,29.32
2024-05-09T21:44:08.519Z,29.34
2024-05-09T21:46:39.490Z,29.35
2024-05-09T21:49:10.391Z,29.30
2024-05-09T21:51:41.314Z,29.28
2024-05-09T21:54:12.263Z,29.29
2024-05-09T21:56:43.207Z,29.31
2024-05-09T21:59:13.646Z,29.23
2024-05-09T22:01:44.532Z,29.33
2024-05-09T22:04:15.514Z,29.27
2024-05-09T22:06:46.575Z,29.25
2024-05-09T22:09:17.867Z,29.25
2024-05-09T22:11:51.418Z,29.20
2024-05-09T22:14:23.349Z,29.17
2024-05-09T22:16:54.214Z,29.14
2024-05-09T22:19:25.117Z,29.06
2024-05-09T22:21:56.928Z,29.10
2024-05-09T22:24:27.676Z,29.09
2024-05-09T22:26:58.726Z,29.06
2024-05-09T22:29:29.373Z,29.00
2024-05-09T22:32:00.277Z,28.94
2024-05-09T22:34:31.318Z,28.93
2024-05-09T22:37:02.370Z,28.95
2024-05-09T22:39:33.499Z,28.96
2024-05-09T22:42:04.202Z,28.91
2024-05-09T22:44:35.613Z,28.87
2024-05-09T22:47:07.010Z,28.84
2024-05-09T22:49:37.847Z,28.78
2024-05-09T22:52:09.497Z,28.76
2024-05-09T22:54:40.289Z,28.75
2024-05-09T22:57:11.725Z,28.73
2024-05-09T22:59:42.488Z,28.70
2024-05-09T23:02:13.544Z,28.65
2024-05-09T23:04:44.529Z,28.63
2024-05-09T23:07:15.590Z,28.62
2024-05-09T23:09:50.097Z,28.57
2024-05-09T23:12:21.015Z,28.50
2024-05-09T23:14:51.831Z,28.43
2024-05-09T23:17:22.800Z,28.40
2024-05-09T23:19:53.652Z,28.37
2024-05-09T23:22:24.741Z,28.30
2024-05-09T23:24:55.840Z,28.29
2024-05-09T23:27:27.707Z,28.30
2024-05-09T23:29:58.903Z,28.18
2024-05-09T23:32:30.000Z,28.14
2024-05-09T23:35:01.742Z,28.18
2024-05-09T23:37:32.745Z,28.10
2024-05-09T23:40:06.891Z,28.12
2024-05-09T23:42:38.050Z,28.08
2024-05-09T23:45:09.715Z,28.09
2024-05-09T23:47:40.817Z,28.04
2024-05-09T23:50:16.918Z,27.96
2024-05-09T23:52:54.431Z,27.95
2024-05-09T23:55:25.566Z,27.88
2024-05-09T23:57:56.479Z,27.84
